createdAt,value
2023-05-09T00:00:51.071Z,102003.53
2023-05-09T00:03:17.604Z,102000.78
2023-05-09T00:05:44.155Z,102001.72
2023-05-09T00:08:11.113Z,102008.97
2023-05-09T00:10:37.651Z,102010.88
2023-05-09T00:13:04.463Z,102010.97
2023-05-09T00:15:32.073Z,101999.63
2023-05-09T00:17:59.443Z,102000.50
2023-05-09T00:20:26.173Z,101983.84
2023-05-09T00:22:52.960Z,101991.06
2023-05-09T00:25:19.436Z,101990.88
2023-05-09T00:27:45.983Z,101985.84
2023-05-09T00:30:13.541Z,101980.41
2023-05-09T00:32:41.376Z,101984.78
2023-05-09T00:35:10.314Z,101977.66
2023-05-09T00:37:37.217Z,101966.13
2023-05-09T00:40:06.230Z,101967.00
2023-05-09T00:42:32.863Z,101958.91
2023-05-09T00:45:00.190Z,101961.75
2023-05-09T00:47:28.674Z,101955.47
2023-05-09T00:50:00.054Z,101954.63
2023-05-09T00:52:27.152Z,101953.38
2023-05-09T00:54:54.866Z,101956.69
2023-05-09T00:57:22.368Z,101949.84
2023-05-09T00:59:49.546Z,101957.09
2023-05-09T01:02:20.139Z,101967.56
2023-05-09T01:04:47.429Z,101952.72
2023-05-09T01:07:26.600Z,101954.50
2023-05-09T01:10:21.506Z,101943.28
2023-05-09T01:12:52.481Z,101930.16
2023-05-09T01:15:28.325Z,101931.13
2023-05-09T01:18:21.870Z,101933.03
2023-05-09T01:20:57.493Z,101931.31
2023-05-09T01:23:43.988Z,101921.59
2023-05-09T01:26:37.480Z,101925.22
2023-05-09T01:29:21.454Z,101917.31
2023-05-09T01:31:49.190Z,101912.84
2023-05-09T01:34:19.318Z,101919.88
2023-05-09T01:36:49.324Z,101914.56
2023-05-09T01:39:18.371Z,101919.97
2023-05-09T01:41:46.351Z,101915.41
2023-05-09T01:44:15.580Z,101914.47
2023-05-09T01:46:44.396Z,101905.41
2023-05-09T01:49:12.160Z,101907.22
2023-05-09T01:51:40.807Z,101900.66
2023-05-09T01:54:10.984Z,101896.38
2023-05-09T01:56:39.740Z,101892.97
2023-05-09T01:59:08.135Z,101894.59
2023-05-09T02:01:35.952Z,101892.00
2023-05-09T02:04:03.969Z,101891.06
2023-05-09T02:06:31.720Z,101888.50
2023-05-09T02:08:59.317Z,101885.94
2023-05-09T02:11:25.911Z,101884.88
2023-05-09T02:13:52.696Z,101873.84
2023-05-09T02:16:20.774Z,101877.06
2023-05-09T02:18:49.210Z,101882.50
2023-05-09T02:21:15.764Z,101873.94
2023-05-09T02:23:42.469Z,101875.81
2023-05-09T02:26:09.240Z,101872.41
2023-05-09T02:28:36.612Z,101876.00
2023-05-09T02:31:07.394Z,101863.00
2023-05-09T02:33:36.112Z,101859.56
2023-05-09T02:36:02.764Z,101852.22
2023-05-09T02:38:29.297Z,101857.38
2023-05-09T02:40:55.793Z,101853.84
2023-05-09T02:43:22.299Z,101849.66
2023-05-09T02:45:49.091Z,101861.75
2023-05-09T02:48:15.701Z,101858.81
2023-05-09T02:50:43.458Z,101844.81
2023-05-09T02:53:10.058Z,101844.34
2023-05-09T02:55:36.550Z,101850.63
2023-05-09T02:58:13.460Z,101859.78
2023-05-09T03:00:40.977Z,101850.81
2023-05-09T03:03:07.573Z,101840.16
2023-05-09T03:05:34.321Z,101844.91
2023-05-09T03:08:00.842Z,101834.25
2023-05-09T03:10:27.348Z,101829.00
2023-05-09T03:12:53.971Z,101822.06
2023-05-09T03:15:21.327Z,101817.59
2023-05-09T03:17:48.176Z,101814.00
2023-05-09T03:20:15.758Z,101819.03
2023-05-09T03:22:42.451Z,101809.16
2023-05-09T03:25:09.546Z,101812.19
2023-05-09T03:27:36.192Z,101816.75
2023-05-09T03:30:02.939Z,101807.81
2023-05-09T03:32:29.675Z,101809.50
2023-05-09T03:34:57.190Z,101803.53
2023-05-09T03:37:26.257Z,101800.84
2023-05-09T03:39:53.501Z,101794.19
2023-05-09T03:42:20.314Z,101783.72
2023-05-09T03:44:47.939Z,101789.16
2023-05-09T03:47:14.760Z,101783.72
2023-05-09T03:49:41.823Z,101773.81
2023-05-09T03:52:08.306Z,101772.31
2023-05-09T03:54:34.820Z,101776.41
2023-05-09T03:57:01.674Z,101772.03
2023-05-09T03:59:28.419Z,101762.31
2023-05-09T04:01:56.078Z,101767.84
2023-05-09T04:04:22.972Z,101765.38
2023-05-09T04:06:49.498Z,101766.22
2023-05-09T04:09:16.016Z,101768.13
2023-05-09T04:11:42.481Z,101759.28
2023-05-09T04:14:08.970Z,101750.19
2023-05-09T04:16:35.530Z,101746.69
2023-05-09T04:19:02.612Z,101742.41
2023-05-09T04:21:29.141Z,101747.22
2023-05-09T04:23:55.764Z,101763.56
2023-05-09T04:26:22.875Z,101757.84
2023-05-09T04:28:50.058Z,101753.56
2023-05-09T04:31:17.517Z,101752.81
2023-05-09T04:33:44.608Z,101751.22
2023-05-09T04:36:11.372Z,101748.63
2023-05-09T04:38:38.092Z,101751.75
2023-05-09T04:41:06.093Z,101760.72
2023-05-09T04:43:32.833Z,101746.63
2023-05-09T04:45:59.434Z,101741.09
2023-05-09T04:48:26.200Z,101740.34
2023-05-09T04:50:52.695Z,101732.25
2023-05-09T04:53:19.202Z,101733.78
2023-05-09T04:55:45.808Z,101729.78
2023-05-09T04:58:13.475Z,101721.31
2023-05-09T05:00:39.984Z,101726.56
2023-05-09T05:03:07.078Z,101721.03
2023-05-09T05:05:36.929Z,101720.19
2023-05-09T05:08:06.728Z,101719.03
2023-05-09T05:10:33.739Z,101718.91
2023-05-09T05:13:00.242Z,101717.97
2023-05-09T05:15:27.122Z,101709.31
2023-05-09T05:17:53.715Z,101716.06
2023-05-09T05:20:21.236Z,101713.19
2023-05-09T05:22:47.783Z,101708.72
2023-05-09T05:25:14.532Z,101695.06
2023-05-09T05:27:41.314Z,101694.66
2023-05-09T05:30:09.796Z,101683.69
2023-05-09T05:32:36.334Z,101681.78
2023-05-09T05:35:04.994Z,101686.78
2023-05-09T05:37:31.840Z,101677.44
2023-05-09T05:39:58.532Z,101681.91
2023-05-09T05:42:25.059Z,101678.16
2023-05-09T05:44:51.817Z,101678.81
2023-05-09T05:47:18.275Z,101675.94
2023-05-09T05:49:45.502Z,101679.56
2023-05-09T05:52:12.051Z,101670.81
2023-05-09T05:54:38.608Z,101669.00
2023-05-09T05:57:05.730Z,101662.81
2023-05-09T05:59:32.236Z,101664.63
2023-05-09T06:01:58.738Z,101661.66
2023-05-09T06:04:25.247Z,101659.31
2023-05-09T06:06:51.732Z,101660.16
2023-05-09T06:09:19.333Z,101664.53
2023-05-09T06:11:46.075Z,101658.56
2023-05-09T06:14:12.555Z,101652.78
2023-05-09T06:16:40.945Z,101653.84
2023-05-09T06:19:07.474Z,101649.16
2023-05-09T06:21:34.822Z,101647.56
2023-05-09T06:24:10.255Z,101642.56
2023-05-09T06:26:41.287Z,101639.34
2023-05-09T06:29:08.154Z,101642.56
2023-05-09T06:31:38.408Z,101628.69
2023-05-09T06:34:05.471Z,101627.94
2023-05-09T06:36:32.508Z,101634.22
2023-05-09T06:38:59.539Z,101627.72
2023-05-09T06:41:26.181Z,101620.06
2023-05-09T06:43:53.238Z,101623.47
2023-05-09T06:46:19.821Z,101621.75
2023-05-09T06:48:46.571Z,101619.94
2023-05-09T06:51:13.278Z,101616.31
2023-05-09T06:53:40.011Z,101611.94
2023-05-09T06:56:06.651Z,101613.44
2023-05-09T06:58:33.198Z,101609.59
2023-05-09T07:00:59.697Z,101607.91
2023-05-09T07:03:26.189Z,101600.75
2023-05-09T07:05:52.767Z,101601.38
2023-05-09T07:08:20.258Z,101601.91
2023-05-09T07:10:47.006Z,101590.28
2023-05-09T07:13:13.851Z,101591.25
2023-05-09T07:15:42.456Z,101592.44
2023-05-09T07:18:09.719Z,101593.72
2023-05-09T07:20:36.570Z,101586.03
2023-05-09T07:23:04.442Z,101592.84
2023-05-09T07:25:31.131Z,101584.66
2023-05-09T07:27:58.136Z,101586.13
2023-05-09T07:30:25.498Z,101583.91
2023-05-09T07:32:52.761Z,101581.25
2023-05-09T07:35:20.486Z,101577.94
2023-05-09T07:37:47.327Z,101581.88
2023-05-09T07:40:14.907Z,101571.22
2023-05-09T07:42:45.092Z,101562.56
2023-05-09T07:45:11.970Z,101566.41
2023-05-09T07:47:38.594Z,101574.19
2023-05-09T07:50:05.943Z,101567.91
2023-05-09T07:52:32.551Z,101556.41
2023-05-09T07:54:59.039Z,101549.47
2023-05-09T07:57:25.653Z,101561.19
2023-05-09T07:59:52.347Z,101537.84
2023-05-09T08:02:19.434Z,101554.78
2023-05-09T08:04:48.870Z,101547.22
2023-05-09T08:07:15.687Z,101546.34
2023-05-09T08:09:42.371Z,101539.22
2023-05-09T08:12:08.944Z,101530.38
2023-05-09T08:14:35.789Z,101525.56
2023-05-09T08:17:02.814Z,101540.03
2023-05-09T08:19:29.569Z,101533.69
2023-05-09T08:21:56.075Z,101531.63
2023-05-09T08:24:22.945Z,101526.19
2023-05-09T08:26:49.479Z,101517.97
2023-05-09T08:29:16.510Z,101521.19
2023-05-09T08:31:43.560Z,101507.97
2023-05-09T08:34:10.116Z,101497.59
2023-05-09T08:36:36.619Z,101510.41
2023-05-09T08:39:03.161Z,101509.84
2023-05-09T08:41:33.619Z,101496.28
2023-05-09T08:44:00.404Z,101493.63
2023-05-09T08:46:36.624Z,101498.34
2023-05-09T08:49:07.258Z,101493.09
2023-05-09T08:51:35.499Z,101488.75
2023-05-09T08:54:03.316Z,101485.44
2023-05-09T08:56:36.685Z,101483.63
2023-05-09T08:59:05.765Z,101478.53
2023-05-09T09:01:35.115Z,101481.06
2023-05-09T09:04:05.422Z,101477.56
2023-05-09T09:06:34.360Z,101477.13
2023-05-09T09:09:01.978Z,101475.22
2023-05-09T09:11:29.238Z,101477.88
2023-05-09T09:14:00.535Z,101477.00
2023-05-09T09:16:30.027Z,101467.97
2023-05-09T09:18:58.930Z,101462.41
2023-05-09T09:21:26.426Z,101464.72
2023-05-09T09:23:56.008Z,101461.22
2023-05-09T09:26:22.500Z,101462.41
2023-05-09T09:28:49.086Z,101461.22
2023-05-09T09:31:23.501Z,101456.38
2023-05-09T09:33:51.125Z,101446.56
2023-05-09T09:36:28.624Z,101452.41
2023-05-09T09:39:04.803Z,101449.75
2023-05-09T09:41:37.080Z,101438.97
2023-05-09T09:44:14.083Z,101455.59
2023-05-09T09:46:51.248Z,101450.03
2023-05-09T09:49:20.155Z,101442.88
2023-05-09T09:51:54.688Z,101442.13
2023-05-09T09:54:21.743Z,101447.47
2023-05-09T09:56:50.134Z,101441.28
2023-05-09T09:59:18.372Z,101433.16
2023-05-09T10:02:07.896Z,101434.75
2023-05-09T10:04:41.755Z,101436.69
2023-05-09T10:07:13.540Z,101431.56
2023-05-09T10:09:41.416Z,101426.00
2023-05-09T10:12:08.799Z,101424.44
2023-05-09T10:14:36.729Z,101423.47
2023-05-09T10:17:07.295Z,101433.50
2023-05-09T10:19:36.108Z,101415.69
2023-05-09T10:22:10.157Z,101419.44
2023-05-09T10:24:51.275Z,101420.84
2023-05-09T10:27:21.665Z,101425.00
2023-05-09T10:30:07.744Z,101416.16
2023-05-09T10:32:53.272Z,101424.03
2023-05-09T10:35:22.980Z,101420.84
2023-05-09T10:37:50.568Z,101416.38
2023-05-09T10:40:17.736Z,101410.91
2023-05-09T10:42:45.185Z,101410.69
2023-05-09T10:45:12.804Z,101403.66
2023-05-09T10:47:44.247Z,101394.56
2023-05-09T10:50:15.723Z,101393.38
2023-05-09T10:53:14.048Z,101391.66
2023-05-09T10:55:46.521Z,101390.47
2023-05-09T10:58:33.772Z,101388.66
2023-05-09T11:01:01.850Z,101389.50
2023-05-09T11:03:29.752Z,101386.09
2023-05-09T11:05:58.920Z,101377.75
2023-05-09T11:08:30.600Z,101371.91
2023-05-09T11:11:00.905Z,101370.59
2023-05-09T11:13:31.487Z,101372.19
2023-05-09T11:16:01.705Z,101370.25
2023-05-09T11:18:32.842Z,101361.38
2023-05-09T11:21:07.031Z,101366.63
2023-05-09T11:23:34.120Z,101355.09
2023-05-09T11:26:08.078Z,101349.75
2023-05-09T11:28:36.779Z,101346.34
2023-05-09T11:31:15.154Z,101344.28
2023-05-09T11:33:45.015Z,101340.66
2023-05-09T11:36:17.969Z,101336.28
2023-05-09T11:38:48.561Z,101340.91
2023-05-09T11:41:15.804Z,101334.72
2023-05-09T11:43:44.621Z,101329.47
2023-05-09T11:46:11.601Z,101327.94
2023-05-09T11:48:39.597Z,101331.22
2023-05-09T11:51:07.254Z,101330.72
2023-05-09T11:53:35.369Z,101329.50
2023-05-09T11:56:04.657Z,101321.50
2023-05-09T11:58:31.609Z,101320.53
2023-05-09T12:00:58.574Z,101310.09
2023-05-09T12:03:25.624Z,101316.53
2023-05-09T12:05:54.568Z,101308.81
2023-05-09T12:08:22.864Z,101310.88
2023-05-09T12:10:49.713Z,101300.53
2023-05-09T12:13:16.409Z,101311.59
2023-05-09T12:15:45.869Z,101299.22
2023-05-09T12:18:12.651Z,101301.03
2023-05-09T12:20:52.568Z,101298.03
2023-05-09T12:23:20.003Z,101297.66
2023-05-09T12:25:56.990Z,101294.00
2023-05-09T12:28:24.851Z,101292.06
2023-05-09T12:30:52.889Z,101287.22
2023-05-09T12:33:19.995Z,101293.66
2023-05-09T12:35:47.521Z,101292.31
2023-05-09T12:38:20.492Z,101289.28
2023-05-09T12:41:22.519Z,101286.00
2023-05-09T12:43:57.611Z,101280.31
2023-05-09T12:46:24.330Z,101278.00
2023-05-09T12:48:51.918Z,101275.81
2023-05-09T12:51:22.190Z,101286.22
2023-05-09T12:53:49.520Z,101278.69
2023-05-09T12:56:20.893Z,101272.84
2023-05-09T12:58:52.635Z,101270.31
2023-05-09T13:01:20.589Z,101269.06
2023-05-09T13:04:01.209Z,101270.78
2023-05-09T13:06:28.403Z,101267.25
2023-05-09T13:09:02.867Z,101267.25
2023-05-09T13:11:29.844Z,101266.06
2023-05-09T13:13:56.887Z,101261.31
2023-05-09T13:16:24.152Z,101261.22
2023-05-09T13:18:50.775Z,101252.47
2023-05-09T13:21:18.422Z,101261.94
2023-05-09T13:23:45.611Z,101255.63
2023-05-09T13:26:12.619Z,101248.59
2023-05-09T13:28:39.343Z,101244.47
2023-05-09T13:31:08.328Z,101244.59
2023-05-09T13:33:35.045Z,101249.06
2023-05-09T13:36:03.179Z,101245.31
2023-05-09T13:38:36.623Z,101228.44
2023-05-09T13:41:03.469Z,101235.34
2023-05-09T13:43:30.344Z,101238.88
2023-05-09T13:45:56.997Z,101229.66
2023-05-09T13:48:23.542Z,101235.84
2023-05-09T13:50:50.868Z,101227.59
2023-05-09T13:53:17.322Z,101223.97
2023-05-09T13:55:44.750Z,101224.31
2023-05-09T13:58:12.233Z,101222.75
2023-05-09T14:00:38.698Z,101221.06
2023-05-09T14:03:05.714Z,101220.09
2023-05-09T14:05:32.529Z,101213.03
2023-05-09T14:07:59.115Z,101213.03
2023-05-09T14:10:27.133Z,101213.78
2023-05-09T14:12:54.150Z,101212.31
2023-05-09T14:15:20.858Z,101207.94
2023-05-09T14:17:47.615Z,101206.13
2023-05-09T14:20:16.071Z,101205.28
2023-05-09T14:22:43.039Z,101193.88
2023-05-09T14:25:09.781Z,101205.88
2023-05-09T14:27:37.101Z,101192.66
2023-05-09T14:30:04.785Z,101195.81
2023-05-09T14:32:31.343Z,101193.03
2023-05-09T14:34:58.105Z,101182.47
2023-05-09T14:37:24.588Z,101188.03
2023-05-09T14:39:51.395Z,101184.84
2023-05-09T14:42:18.365Z,101180.34
2023-05-09T14:44:46.104Z,101172.97
2023-05-09T14:47:13.083Z,101173.59
2023-05-09T14:49:42.201Z,101170.69
2023-05-09T14:52:08.690Z,101171.50
2023-05-09T14:54:35.600Z,101164.22
2023-05-09T14:57:04.677Z,101165.09
2023-05-09T14:59:31.511Z,101170.03
2023-05-09T15:01:58.267Z,101159.75
2023-05-09T15:04:28.366Z,101159.31
2023-05-09T15:06:55.325Z,101153.72
2023-05-09T15:09:22.568Z,101142.31
2023-05-09T15:11:49.996Z,101146.44
2023-05-09T15:14:17.024Z,101139.31
2023-05-09T15:16:43.781Z,101140.16
2023-05-09T15:19:10.760Z,101137.00
2023-05-09T15:21:37.537Z,101134.09
2023-05-09T15:24:05.521Z,101133.25
2023-05-09T15:26:32.258Z,101134.44
2023-05-09T15:28:58.974Z,101122.56
2023-05-09T15:31:25.746Z,101125.00
2023-05-09T15:33:52.896Z,101134.94
2023-05-09T15:36:19.331Z,101134.56
2023-05-09T15:38:49.366Z,101121.34
2023-05-09T15:41:16.336Z,101126.44
2023-05-09T15:43:43.106Z,101125.34
2023-05-09T15:46:09.863Z,101124.88
2023-05-09T15:48:36.387Z,101130.31
2023-05-09T15:51:03.981Z,101128.63
2023-05-09T15:53:30.751Z,101129.13
2023-05-09T15:55:57.308Z,101116.63
2023-05-09T15:58:23.936Z,101125.13
2023-05-09T16:00:50.895Z,101123.16
2023-05-09T16:03:18.583Z,101110.81
2023-05-09T16:05:45.357Z,101116.38
2023-05-09T16:08:12.481Z,101110.19
2023-05-09T16:10:39.146Z,101113.84
2023-05-09T16:13:05.833Z,101112.97
2023-05-09T16:15:32.654Z,101103.41
2023-05-09T16:17:59.298Z,101104.72
2023-05-09T16:20:25.800Z,101100.50
2023-05-09T16:22:52.314Z,101108.84
2023-05-09T16:25:20.764Z,101105.09
2023-05-09T16:27:47.303Z,101093.81
2023-05-09T16:30:15.014Z,101092.13
2023-05-09T16:32:42.894Z,101092.50
2023-05-09T16:35:09.732Z,101087.03
2023-05-09T16:37:36.447Z,101089.22
2023-05-09T16:40:04.676Z,101093.09
2023-05-09T16:42:31.405Z,101074.94
2023-05-09T16:44:58.069Z,101080.13
2023-05-09T16:47:24.625Z,101077.94
2023-05-09T16:49:51.340Z,101069.59
2023-05-09T16:52:20.222Z,101063.00
2023-05-09T16:54:46.716Z,101071.84
2023-05-09T16:57:13.551Z,101072.84
2023-05-09T16:59:40.171Z,101070.28
2023-05-09T17:02:07.212Z,101065.69
2023-05-09T17:04:37.529Z,101070.16
2023-05-09T17:07:04.508Z,101068.59
2023-05-09T17:09:32.088Z,101071.13
2023-05-09T17:11:59.035Z,101068.47
2023-05-09T17:14:25.998Z,101063.97
2023-05-09T17:16:52.955Z,101064.69
2023-05-09T17:19:23.447Z,101067.97
2023-05-09T17:21:50.180Z,101051.94
2023-05-09T17:24:17.362Z,101068.78
2023-05-09T17:26:43.957Z,101072.19
2023-05-09T17:29:12.280Z,101062.50
2023-05-09T17:31:39.345Z,101059.22
2023-05-09T17:34:06.366Z,101064.44
2023-05-09T17:36:33.867Z,101057.28
2023-05-09T17:39:02.208Z,101055.94
2023-05-09T17:41:29.306Z,101060.69
2023-05-09T17:43:58.831Z,101056.81
2023-05-09T17:46:25.312Z,101056.19
2023-05-09T17:48:52.303Z,101046.75
2023-05-09T17:51:18.931Z,101060.06
2023-05-09T17:53:46.371Z,101056.06
2023-05-09T17:56:12.982Z,101059.81
2023-05-09T17:58:39.529Z,101051.84
2023-05-09T18:01:06.990Z,101053.16
2023-05-09T18:03:33.928Z,101058.25
2023-05-09T18:06:01.600Z,101061.53
2023-05-09T18:08:31.685Z,101057.41
2023-05-09T18:10:58.159Z,101053.16
2023-05-09T18:13:25.113Z,101062.13
2023-05-09T18:15:53.970Z,101050.00
2023-05-09T18:18:21.057Z,101059.44
2023-05-09T18:20:47.895Z,101063.44
2023-05-09T18:23:14.848Z,101061.38
2023-05-09T18:25:42.212Z,101054.59
2023-05-09T18:28:09.447Z,101054.09
2023-05-09T18:30:36.211Z,101059.03
2023-05-09T18:33:03.119Z,101059.16
2023-05-09T18:35:29.936Z,101055.75
2023-05-09T18:37:56.489Z,101059.16
2023-05-09T18:40:23.047Z,101054.41
2023-05-09T18:42:49.646Z,101051.00
2023-05-09T18:45:16.279Z,101061.44
2023-05-09T18:47:42.859Z,101049.03
2023-05-09T18:50:09.944Z,101056.56
2023-05-09T18:52:36.569Z,101052.19
2023-05-09T18:55:03.387Z,101056.78
2023-05-09T18:57:29.930Z,101055.56
2023-05-09T18:59:56.681Z,101066.19
2023-05-09T19:02:24.880Z,101059.06
2023-05-09T19:04:52.046Z,101061.22
2023-05-09T19:07:18.749Z,101063.88
2023-05-09T19:09:45.853Z,101057.47
2023-05-09T19:12:13.689Z,101066.03
2023-05-09T19:14:41.005Z,101057.78
2023-05-09T19:17:09.154Z,101053.31
2023-05-09T19:19:35.662Z,101068.31
2023-05-09T19:22:02.282Z,101068.56
2023-05-09T19:24:28.848Z,101074.72
2023-05-09T19:26:55.773Z,101065.28
2023-05-09T19:29:22.327Z,101074.34
2023-05-09T19:31:48.874Z,101069.84
2023-05-09T19:34:15.606Z,101072.84
2023-05-09T19:36:42.377Z,101077.00
2023-05-09T19:39:09.361Z,101082.44
2023-05-09T19:41:36.181Z,101078.91
2023-05-09T19:44:02.824Z,101081.69
2023-05-09T19:46:30.229Z,101083.41
2023-05-09T19:48:56.933Z,101089.06
2023-05-09T19:51:23.633Z,101087.13
2023-05-09T19:53:50.438Z,101098.19
2023-05-09T19:56:17.286Z,101089.47
2023-05-09T19:58:44.150Z,101106.28
2023-05-09T20:01:11.389Z,101103.84
2023-05-09T20:03:41.424Z,101092.81
2023-05-09T20:06:09.093Z,101106.53
2023-05-09T20:08:36.051Z,101104.81
2023-05-09T20:11:03.242Z,101107.59
2023-05-09T20:13:31.560Z,101099.94
2023-05-09T20:16:00.185Z,101102.50
2023-05-09T20:18:27.143Z,101105.16
2023-05-09T20:20:55.020Z,101108.03
2023-05-09T20:23:21.985Z,101115.47
2023-05-09T20:25:48.652Z,101115.69
2023-05-09T20:28:20.093Z,101106.47
2023-05-09T20:30:47.432Z,101109.34
2023-05-09T20:33:14.085Z,101102.09
2023-05-09T20:35:43.432Z,101112.22
2023-05-09T20:38:11.059Z,101118.38
2023-05-09T20:40:37.908Z,101105.31
2023-05-09T20:43:04.634Z,101112.84
2023-05-09T20:45:31.489Z,101106.28
2023-05-09T20:47:59.138Z,101123.81
2023-05-09T20:50:25.872Z,101108.31
2023-05-09T20:52:52.594Z,101118.63
2023-05-09T20:55:19.383Z,101129.03
2023-05-09T20:57:46.093Z,101126.38
2023-05-09T21:00:13.277Z,101119.06
2023-05-09T21:02:43.056Z,101129.16
2023-05-09T21:05:09.880Z,101127.34
2023-05-09T21:07:36.697Z,101126.59
2023-05-09T21:10:03.769Z,101125.00
2023-05-09T21:12:30.712Z,101132.75
2023-05-09T21:14:57.784Z,101127.66
2023-05-09T21:17:24.501Z,101123.81
2023-05-09T21:19:52.088Z,101117.03
2023-05-09T21:22:18.948Z,101115.84
2023-05-09T21:24:45.593Z,101118.63
2023-05-09T21:27:12.497Z,101116.19
2023-05-09T21:29:39.350Z,101108.09
2023-05-09T21:32:06.110Z,101110.63
2023-05-09T21:34:32.982Z,101110.53
2023-05-09T21:36:59.983Z,101100.31
2023-05-09T21:39:26.530Z,101109.38
2023-05-09T21:41:53.373Z,101110.13
2023-05-09T21:44:20.089Z,101105.66
2023-05-09T21:46:46.818Z,101100.53
2023-05-09T21:49:16.750Z,101105.66
2023-05-09T21:51:44.575Z,101093.41
2023-05-09T21:54:11.191Z,101097.66
2023-05-09T21:56:38.378Z,101099.47
2023-05-09T21:59:05.260Z,101094.25
2023-05-09T22:01:31.861Z,101094.03
2023-05-09T22:03:59.037Z,101080.75
2023-05-09T22:06:25.963Z,101082.34
2023-05-09T22:08:52.499Z,101081.81
2023-05-09T22:11:20.224Z,101077.56
2023-05-09T22:13:46.922Z,101080.00
2023-05-09T22:16:14.074Z,101080.00
2023-05-09T22:18:41.078Z,101081.94
2023-05-09T22:21:07.628Z,101093.19
2023-05-09T22:23:34.273Z,101090.97
2023-05-09T22:26:00.941Z,101083.97
2023-05-09T22:28:27.445Z,101087.47
2023-05-09T22:30:54.070Z,101078.53
2023-05-09T22:33:20.813Z,101074.69
2023-05-09T22:35:47.343Z,101082.16
2023-05-09T22:38:13.785Z,101081.06
2023-05-09T22:40:40.349Z,101074.91
2023-05-09T22:43:06.861Z,101081.19
2023-05-09T22:45:33.367Z,101070.78
2023-05-09T22:47:59.866Z,101080.13
2023-05-09T22:50:26.414Z,101080.84
2023-05-09T22:52:53.429Z,101082.66
2023-05-09T22:55:20.196Z,101066.19
2023-05-09T22:57:47.401Z,101079.28
2023-05-09T23:00:15.124Z,101080.13
2023-05-09T23:02:42.012Z,101073.94
2023-05-09T23:05:09.164Z,101081.81
2023-05-09T23:07:36.119Z,101072.34
2023-05-09T23:10:03.643Z,101076.81
2023-05-09T23:12:30.896Z,101064.50
2023-05-09T23:14:57.590Z,101086.00
2023-05-09T23:17:24.590Z,101080.22
2023-05-09T23:19:51.117Z,101084.06
2023-05-09T23:22:17.818Z,101091.53
2023-05-09T23:24:44.410Z,101088.97
2023-05-09T23:27:11.211Z,101073.66
2023-05-09T23:29:37.721Z,101073.53
2023-05-09T23:32:04.714Z,101079.06
2023-05-09T23:34:31.702Z,101074.09
2023-05-09T23:36:58.412Z,101072.06
2023-05-09T23:39:24.934Z,101072.16
2023-05-09T23:41:51.607Z,101074.72
2023-05-09T23:44:18.189Z,101072.16
2023-05-09T23:46:44.781Z,101076.75
2023-05-09T23:49:13.322Z,101079.63
2023-05-09T23:51:40.417Z,101083.97
2023-05-09T23:54:07.677Z,101084.94
2023-05-09T23:56:34.242Z,101083.88
2023-05-09T23:59:00.920Z,101080.47
